createdAt,value
2022-11-08T00:00:06.409Z,6.95
2022-11-08T00:02:33.124Z,7.13
2022-11-08T00:05:18.416Z,6.32
2022-11-08T00:08:03.520Z,5.45
2022-11-08T00:10:48.637Z,5.65
2022-11-08T00:13:33.884Z,5.53
2022-11-08T00:16:01.576Z,6.43
2022-11-08T00:18:28.115Z,6.00
2022-11-08T00:20:54.679Z,5.88
2022-11-08T00:23:21.209Z,6.85
2022-11-08T00:25:53.856Z,6.15
2022-11-08T00:28:20.801Z,5.35
2022-11-08T00:30:47.327Z,6.30
2022-11-08T00:33:13.992Z,6.93
2022-11-08T00:35:40.529Z,6.03
2022-11-08T00:38:07.222Z,6.13
2022-11-08T00:40:34.739Z,6.25
2022-11-08T00:43:01.289Z,5.07
2022-11-08T00:45:27.842Z,7.43
2022-11-08T00:47:54.369Z,5.95
2022-11-08T00:50:21.086Z,5.00
2022-11-08T00:52:47.647Z,6.70
2022-11-08T00:55:14.161Z,6.00
2022-11-08T00:57:58.445Z,5.50
2022-11-08T01:00:27.019Z,4.72
2022-11-08T01:03:13.605Z,5.28
2022-11-08T01:05:40.265Z,7.15
2022-11-08T01:08:06.805Z,6.53
2022-11-08T01:10:33.416Z,5.60
2022-11-08T01:12:59.961Z,6.53
2022-11-08T01:15:26.805Z,5.60
2022-11-08T01:17:53.583Z,5.75
2022-11-08T01:20:20.182Z,5.53
2022-11-08T01:22:46.744Z,4.55
2022-11-08T01:25:13.273Z,5.18
2022-11-08T01:27:39.792Z,5.43
2022-11-08T01:30:07.045Z,4.97
2022-11-08T01:32:33.684Z,5.57
2022-11-08T01:35:00.276Z,5.63
2022-11-08T01:37:26.806Z,5.55
2022-11-08T01:39:54.049Z,5.90
2022-11-08T01:42:31.851Z,5.80
2022-11-08T01:45:07.801Z,5.43
2022-11-08T01:47:34.615Z,5.88
2022-11-08T01:50:07.844Z,4.78
2022-11-08T01:52:43.533Z,4.50
2022-11-08T01:55:44.811Z,5.25
2022-11-08T01:58:17.802Z,6.75
2022-11-08T02:00:44.898Z,3.50
2022-11-08T02:03:16.319Z,5.30
2022-11-08T02:05:42.886Z,6.25
2022-11-08T02:08:20.049Z,5.32
2022-11-08T02:10:49.974Z,4.45
2022-11-08T02:13:23.640Z,5.20
2022-11-08T02:15:50.491Z,5.55
2022-11-08T02:18:19.703Z,5.40
2022-11-08T02:21:16.612Z,4.65
2022-11-08T02:23:55.443Z,4.43
2022-11-08T02:26:29.849Z,4.85
2022-11-08T02:28:56.578Z,5.80
2022-11-08T02:31:23.201Z,4.72
2022-11-08T02:33:50.351Z,4.97
2022-11-08T02:36:24.622Z,6.97
2022-11-08T02:38:54.485Z,6.30
2022-11-08T02:41:21.146Z,4.45
2022-11-08T02:43:47.739Z,4.63
2022-11-08T02:46:14.595Z,5.15
2022-11-08T02:48:41.186Z,4.72
2022-11-08T02:51:07.900Z,6.80
2022-11-08T02:53:34.530Z,4.32
2022-11-08T02:56:01.062Z,3.50
2022-11-08T02:58:28.148Z,4.40
2022-11-08T03:00:54.849Z,5.05
2022-11-08T03:03:21.459Z,3.67
2022-11-08T03:05:48.431Z,6.78
2022-11-08T03:08:16.903Z,4.70
2022-11-08T03:10:43.793Z,5.15
2022-11-08T03:13:10.446Z,4.53
2022-11-08T03:15:37.028Z,4.60
2022-11-08T03:18:03.709Z,6.13
2022-11-08T03:20:33.061Z,5.63
2022-11-08T03:23:06.508Z,8.98
2022-11-08T03:25:34.014Z,3.90
2022-11-08T03:28:08.645Z,5.75
2022-11-08T03:30:35.808Z,6.80
2022-11-08T03:33:02.609Z,6.28
2022-11-08T03:35:29.213Z,5.28
2022-11-08T03:37:57.484Z,5.28
2022-11-08T03:40:25.007Z,7.40
2022-11-08T03:42:51.519Z,4.63
2022-11-08T03:45:18.542Z,4.60
2022-11-08T03:47:47.112Z,6.32
2022-11-08T03:50:15.193Z,8.52
2022-11-08T03:52:43.172Z,4.35
2022-11-08T03:55:10.951Z,5.05
2022-11-08T03:57:38.316Z,5.82
2022-11-08T04:00:06.404Z,4.93
2022-11-08T04:02:33.294Z,3.60
2022-11-08T04:05:02.832Z,4.45
2022-11-08T04:07:29.619Z,10.82
2022-11-08T04:09:56.137Z,4.97
2022-11-08T04:12:47.441Z,6.75
2022-11-08T04:15:16.192Z,5.15
2022-11-08T04:18:02.449Z,5.15
2022-11-08T04:20:48.079Z,4.63
2022-11-08T04:23:15.998Z,6.43
2022-11-08T04:25:43.193Z,5.18
2022-11-08T04:28:12.830Z,4.63
2022-11-08T04:30:39.416Z,5.30
2022-11-08T04:33:07.047Z,5.05
2022-11-08T04:35:33.843Z,5.25
2022-11-08T04:38:01.726Z,4.63
2022-11-08T04:40:30.733Z,4.65
2022-11-08T04:42:57.267Z,4.30
2022-11-08T04:45:24.045Z,5.03
2022-11-08T04:47:50.556Z,6.47
2022-11-08T04:50:17.190Z,5.20
2022-11-08T04:52:43.953Z,5.18
2022-11-08T04:55:10.496Z,6.50
2022-11-08T04:57:37.039Z,4.93
2022-11-08T05:00:04.391Z,4.70
2022-11-08T05:02:31.110Z,5.80
2022-11-08T05:04:57.882Z,4.72
2022-11-08T05:07:24.517Z,4.30
2022-11-08T05:09:51.101Z,6.57
2022-11-08T05:12:17.640Z,4.65
2022-11-08T05:14:44.277Z,5.45
2022-11-08T05:17:10.810Z,4.47
2022-11-08T05:19:55.958Z,7.32
2022-11-08T05:22:41.113Z,4.75
2022-11-08T05:25:08.116Z,4.85
2022-11-08T05:27:35.197Z,4.80
2022-11-08T05:30:02.247Z,5.10
2022-11-08T05:32:28.964Z,4.93
2022-11-08T05:34:55.918Z,6.13
2022-11-08T05:37:22.696Z,4.90
2022-11-08T05:39:49.397Z,3.90
2022-11-08T05:42:15.975Z,6.57
2022-11-08T05:44:42.511Z,6.63
2022-11-08T05:47:09.152Z,6.50
2022-11-08T05:49:35.665Z,6.80
2022-11-08T05:52:02.515Z,8.43
2022-11-08T05:54:29.273Z,6.90
2022-11-08T05:56:55.799Z,6.18
2022-11-08T05:59:22.498Z,10.65
2022-11-08T06:01:49.196Z,24.45
2022-11-08T06:04:15.776Z,35.08
2022-11-08T06:06:42.632Z,48.60
2022-11-08T06:09:09.209Z,49.30
2022-11-08T06:11:35.775Z,31.88
2022-11-08T06:14:02.280Z,19.73
2022-11-08T06:16:29.509Z,7.45
2022-11-08T06:18:56.325Z,6.15
2022-11-08T06:21:22.990Z,4.57
2022-11-08T06:23:53.516Z,5.18
2022-11-08T06:26:21.757Z,7.07
2022-11-08T06:28:48.291Z,5.15
2022-11-08T06:31:15.014Z,6.15
2022-11-08T06:33:41.554Z,4.50
2022-11-08T06:36:08.428Z,4.53
2022-11-08T06:38:35.148Z,5.45
2022-11-08T06:41:02.371Z,5.47
2022-11-08T06:43:29.087Z,4.65
2022-11-08T06:46:00.260Z,5.85
2022-11-08T06:48:29.912Z,7.28
2022-11-08T06:53:27.956Z,4.32
2022-11-08T06:55:55.034Z,3.83
2022-11-08T06:58:21.632Z,5.93
2022-11-08T07:00:48.166Z,4.22
2022-11-08T07:03:17.282Z,5.20
2022-11-08T07:05:44.003Z,3.67
2022-11-08T07:08:10.585Z,3.97
2022-11-08T07:10:37.637Z,6.60
2022-11-08T07:13:07.656Z,3.72
2022-11-08T07:15:35.396Z,6.28
2022-11-08T07:18:15.770Z,5.72
2022-11-08T07:20:43.456Z,7.40
2022-11-08T07:23:11.348Z,5.07
2022-11-08T07:25:38.221Z,6.13
2022-11-08T07:28:07.333Z,3.78
2022-11-08T07:30:35.436Z,4.32
2022-11-08T07:33:04.951Z,6.03
2022-11-08T07:35:32.551Z,4.07
2022-11-08T07:37:59.127Z,4.75
2022-11-08T07:40:25.713Z,6.93
2022-11-08T07:45:39.359Z,5.20
2022-11-08T07:48:11.386Z,5.43
2022-11-08T07:50:38.730Z,4.70
2022-11-08T07:53:05.476Z,6.28
2022-11-08T07:55:32.009Z,4.05
2022-11-08T07:58:02.119Z,4.25
2022-11-08T08:00:33.249Z,5.80
2022-11-08T08:03:01.141Z,4.30
2022-11-08T08:05:29.324Z,6.57
2022-11-08T08:08:02.135Z,4.97
2022-11-08T08:10:30.010Z,5.80
2022-11-08T08:12:57.174Z,3.38
2022-11-08T08:15:25.061Z,3.63
2022-11-08T08:17:52.180Z,3.00
2022-11-08T08:20:19.495Z,9.88
2022-11-08T08:22:51.308Z,6.88
2022-11-08T08:25:18.781Z,5.18
2022-11-08T08:27:56.435Z,3.28
2022-11-08T08:30:24.336Z,7.18
2022-11-08T08:33:08.322Z,5.43
2022-11-08T08:35:39.669Z,5.50
2022-11-08T08:38:07.287Z,3.92
2022-11-08T08:40:34.457Z,4.22
2022-11-08T08:43:03.312Z,4.78
2022-11-08T08:45:30.964Z,4.45
2022-11-08T08:47:58.483Z,3.85
2022-11-08T08:50:31.063Z,3.70
2022-11-08T08:53:02.798Z,2.20
2022-11-08T08:55:29.560Z,3.67
2022-11-08T08:57:56.304Z,6.93
2022-11-08T09:03:11.534Z,4.38
2022-11-08T09:05:41.839Z,4.22
2022-11-08T09:08:08.421Z,4.18
2022-11-08T09:10:35.345Z,4.97
2022-11-08T09:13:03.281Z,3.80
2022-11-08T09:15:29.962Z,3.10
2022-11-08T09:17:57.711Z,5.28
2022-11-08T09:20:25.716Z,4.53
2022-11-08T09:22:52.349Z,3.58
2022-11-08T09:25:19.129Z,4.68
2022-11-08T09:27:45.675Z,3.97
2022-11-08T09:30:12.269Z,4.63
2022-11-08T09:32:59.570Z,5.35
2022-11-08T09:35:25.372Z,3.35
2022-11-08T09:37:55.610Z,3.30
2022-11-08T09:40:31.427Z,5.97
2022-11-08T09:43:16.641Z,6.78
2022-11-08T09:45:47.964Z,5.38
2022-11-08T09:48:22.251Z,4.45
2022-11-08T09:50:52.113Z,5.45
2022-11-08T09:53:22.799Z,5.07
2022-11-08T09:56:21.672Z,4.15
2022-11-08T09:59:18.987Z,4.00
2022-11-08T10:01:45.615Z,4.40
2022-11-08T10:04:16.285Z,3.95
2022-11-08T10:06:49.908Z,7.20
2022-11-08T10:09:38.311Z,6.50
2022-11-08T10:12:07.884Z,6.03
2022-11-08T10:14:52.325Z,6.70
2022-11-08T10:17:44.318Z,7.68
2022-11-08T10:20:47.910Z,4.88
2022-11-08T10:23:28.591Z,3.78
2022-11-08T10:26:05.653Z,6.05
2022-11-08T10:28:44.534Z,4.78
2022-11-08T10:31:15.215Z,6.78
2022-11-08T10:33:53.867Z,6.68
2022-11-08T10:36:30.557Z,5.70
2022-11-08T10:39:03.154Z,5.20
2022-11-08T10:41:52.689Z,5.10
2022-11-08T10:44:22.153Z,4.85
2022-11-08T10:46:51.167Z,6.35
2022-11-08T10:49:24.616Z,5.55
2022-11-08T10:51:54.360Z,4.25
2022-11-08T10:54:56.141Z,5.70
2022-11-08T10:57:24.233Z,4.88
2022-11-08T10:59:51.488Z,5.63
2022-11-08T11:02:28.320Z,4.38
2022-11-08T11:05:19.534Z,4.65
2022-11-08T11:07:56.185Z,5.63
2022-11-08T11:10:29.320Z,5.53
2022-11-08T11:13:20.268Z,4.22
2022-11-08T11:15:51.148Z,4.03
2022-11-08T11:18:26.827Z,3.67
2022-11-08T11:21:06.392Z,3.75
2022-11-08T11:23:54.172Z,3.40
2022-11-08T11:26:28.989Z,2.92
2022-11-08T11:28:59.203Z,3.25
2022-11-08T11:31:25.855Z,3.67
2022-11-08T11:33:52.402Z,1.80
2022-11-08T11:36:22.368Z,3.58
2022-11-08T11:39:09.526Z,4.25
2022-11-08T11:41:49.271Z,2.92
2022-11-08T11:44:30.001Z,3.25
2022-11-08T11:47:17.418Z,2.55
2022-11-08T11:49:45.361Z,4.45
2022-11-08T11:52:19.275Z,3.50
2022-11-08T11:54:49.647Z,5.15
2022-11-08T11:58:04.112Z,2.85
2022-11-08T12:00:32.035Z,3.20
2022-11-08T12:03:18.787Z,2.45
2022-11-08T12:06:04.785Z,2.42
2022-11-08T12:08:43.038Z,2.65
2022-11-08T12:11:33.911Z,1.98
2022-11-08T12:14:29.828Z,3.63
2022-11-08T12:17:05.354Z,3.35
2022-11-08T12:19:44.691Z,1.95
2022-11-08T12:22:20.161Z,2.75
2022-11-08T12:25:13.488Z,3.35
2022-11-08T12:28:00.678Z,2.05
2022-11-08T12:30:56.839Z,2.08
2022-11-08T12:33:26.440Z,3.45
2022-11-08T12:36:23.345Z,2.88
2022-11-08T12:38:58.864Z,2.80
2022-11-08T12:41:45.772Z,3.05
2022-11-08T12:44:39.847Z,2.97
2022-11-08T12:47:26.644Z,2.13
2022-11-08T12:50:11.639Z,2.55
2022-11-08T12:52:47.151Z,1.33
2022-11-08T12:55:34.576Z,2.65
2022-11-08T12:58:06.615Z,1.42
2022-11-08T13:00:35.863Z,2.35
2022-11-08T13:03:32.362Z,2.50
2022-11-08T13:06:41.968Z,3.30
2022-11-08T13:09:17.261Z,1.83
2022-11-08T13:11:57.483Z,2.65
2022-11-08T13:14:25.063Z,3.35
2022-11-08T13:17:28.055Z,2.90
2022-11-08T13:20:00.683Z,0.80
2022-11-08T13:22:30.227Z,1.85
2022-11-08T13:25:12.273Z,1.10
2022-11-08T13:27:40.495Z,0.93
2022-11-08T13:30:16.214Z,1.52
2022-11-08T13:32:42.726Z,1.63
2022-11-08T13:35:31.442Z,1.42
2022-11-08T13:38:43.117Z,2.47
2022-11-08T13:41:20.345Z,0.95
2022-11-08T13:43:48.230Z,1.45
2022-11-08T13:46:26.003Z,1.25
2022-11-08T13:48:58.468Z,1.48
2022-11-08T13:51:32.805Z,1.42
2022-11-08T13:54:21.076Z,1.33
2022-11-08T13:56:57.788Z,1.80
2022-11-08T13:59:30.571Z,1.83
2022-11-08T14:02:04.494Z,2.80
2022-11-08T14:04:38.477Z,1.38
2022-11-08T14:07:25.346Z,2.13
2022-11-08T14:10:18.751Z,2.15
2022-11-08T14:13:18.114Z,2.33
2022-11-08T14:16:03.079Z,2.28
2022-11-08T14:18:32.737Z,1.88
2022-11-08T14:20:59.549Z,2.72
2022-11-08T14:23:32.501Z,2.55
2022-11-08T14:26:02.930Z,2.47
2022-11-08T14:28:30.765Z,3.92
2022-11-08T14:31:00.010Z,2.08
2022-11-08T14:33:31.284Z,2.13
2022-11-08T14:36:02.889Z,4.60
2022-11-08T14:38:32.360Z,1.92
2022-11-08T14:41:01.444Z,1.95
2022-11-08T14:43:29.227Z,1.33
2022-11-08T14:45:58.238Z,2.65
2022-11-08T14:48:28.943Z,3.03
2022-11-08T14:51:03.234Z,1.40
2022-11-08T14:53:44.260Z,2.38
2022-11-08T14:56:22.216Z,2.05
2022-11-08T14:58:50.460Z,1.67
2022-11-08T15:01:21.036Z,2.45
2022-11-08T15:03:56.049Z,1.40
2022-11-08T15:06:31.198Z,1.10
2022-11-08T15:08:58.605Z,2.70
2022-11-08T15:11:34.078Z,2.97
2022-11-08T15:14:06.429Z,4.75
2022-11-08T15:16:51.151Z,2.25
2022-11-08T15:19:29.563Z,4.40
2022-11-08T15:22:00.624Z,1.95
2022-11-08T15:24:33.371Z,4.75
2022-11-08T15:27:05.924Z,1.60
2022-11-08T15:29:49.883Z,3.17
2022-11-08T15:34:45.627Z,4.00
2022-11-08T15:37:29.064Z,5.85
2022-11-08T15:39:56.519Z,1.88
2022-11-08T15:42:23.206Z,3.55
2022-11-08T15:45:06.506Z,5.20
2022-11-08T15:47:37.175Z,2.85
2022-11-08T15:50:12.691Z,2.40
2022-11-08T15:52:44.455Z,2.33
2022-11-08T15:55:32.404Z,3.70
2022-11-08T15:58:00.447Z,3.13
2022-11-08T16:00:41.747Z,3.33
2022-11-08T16:03:16.792Z,4.80
2022-11-08T16:05:46.606Z,3.90
2022-11-08T16:11:24.467Z,4.30
2022-11-08T16:14:01.533Z,2.72
2022-11-08T16:16:37.374Z,4.05
2022-11-08T16:19:25.483Z,2.80
2022-11-08T16:22:01.483Z,1.98
2022-11-08T16:24:36.471Z,2.17
2022-11-08T16:27:14.810Z,3.40
2022-11-08T16:29:59.992Z,4.95
2022-11-08T16:32:36.835Z,4.32
2022-11-08T16:35:12.589Z,5.32
2022-11-08T16:37:57.856Z,4.85
2022-11-08T16:40:29.656Z,8.07
2022-11-08T16:43:06.725Z,6.50
2022-11-08T16:46:04.343Z,7.13
2022-11-08T16:48:43.730Z,7.28
2022-11-08T16:51:29.022Z,10.45
2022-11-08T16:54:01.047Z,9.30
2022-11-08T16:56:37.025Z,13.05
2022-11-08T16:59:14.921Z,7.90
2022-11-08T17:01:51.238Z,8.60
2022-11-08T17:04:25.630Z,5.70
2022-11-08T17:07:16.678Z,6.32
2022-11-08T17:09:50.821Z,6.60
2022-11-08T17:12:28.034Z,12.73
2022-11-08T17:15:06.028Z,8.63
2022-11-08T17:17:40.859Z,8.02
2022-11-08T17:20:16.707Z,9.15
2022-11-08T17:22:53.989Z,10.45
2022-11-08T17:25:25.693Z,11.20
2022-11-08T17:28:02.722Z,12.07
2022-11-08T17:30:44.798Z,14.38
2022-11-08T17:33:20.474Z,13.60
2022-11-08T17:35:48.883Z,11.90
2022-11-08T17:38:21.126Z,11.30
2022-11-08T17:40:56.176Z,11.57
2022-11-08T17:43:44.311Z,11.65
2022-11-08T17:46:20.329Z,10.35
2022-11-08T17:48:48.430Z,11.48
2022-11-08T17:51:16.223Z,9.38
2022-11-08T17:53:51.764Z,10.10
2022-11-08T17:56:32.122Z,9.90
2022-11-08T17:59:13.814Z,8.98
2022-11-08T18:01:52.317Z,8.88
2022-11-08T18:04:23.072Z,13.30
2022-11-08T18:06:57.767Z,10.27
2022-11-08T18:09:29.559Z,12.85
2022-11-08T18:12:13.595Z,10.98
2022-11-08T18:17:09.328Z,10.85
2022-11-08T18:19:47.129Z,9.73
2022-11-08T18:22:24.807Z,10.40
2022-11-08T18:25:02.918Z,3.25
2022-11-08T18:27:36.469Z,10.38
2022-11-08T18:30:09.512Z,13.73
2022-11-08T18:32:43.328Z,15.25
2022-11-08T18:38:01.487Z,11.25
2022-11-08T18:40:36.215Z,9.75
2022-11-08T18:43:03.556Z,13.68
2022-11-08T18:45:36.440Z,13.32
2022-11-08T18:48:08.942Z,14.20
2022-11-08T18:50:53.693Z,12.48
2022-11-08T18:53:32.875Z,12.57
2022-11-08T18:56:16.547Z,13.68
2022-11-08T18:58:50.986Z,15.25
2022-11-08T19:01:28.202Z,12.63
2022-11-08T19:04:04.931Z,11.43
2022-11-08T19:06:37.781Z,13.60
2022-11-08T19:09:11.945Z,11.40
2022-11-08T19:11:43.278Z,9.68
2022-11-08T19:17:08.018Z,9.30
2022-11-08T19:19:38.008Z,10.15
2022-11-08T19:22:05.369Z,12.07
2022-11-08T19:24:39.289Z,12.35
2022-11-08T19:27:20.146Z,15.23
2022-11-08T19:29:50.674Z,15.52
2022-11-08T19:32:21.307Z,12.95
2022-11-08T19:34:51.556Z,12.85
2022-11-08T19:37:26.167Z,15.15
2022-11-08T19:39:58.359Z,13.40
2022-11-08T19:42:36.326Z,14.10
2022-11-08T19:45:10.966Z,20.20
2022-11-08T19:47:45.168Z,20.75
2022-11-08T19:50:13.035Z,19.52
2022-11-08T19:52:53.001Z,21.40
2022-11-08T19:55:30.812Z,15.82
2022-11-08T19:58:05.931Z,10.75
2022-11-08T20:00:39.985Z,11.77
2022-11-08T20:03:11.488Z,9.55
2022-11-08T20:05:41.943Z,11.40
2022-11-08T20:08:17.130Z,8.95
2022-11-08T20:10:47.617Z,9.82
2022-11-08T20:13:23.011Z,10.88
2022-11-08T20:15:51.742Z,8.40
2022-11-08T20:18:22.152Z,11.35
2022-11-08T20:20:49.813Z,13.90
2022-11-08T20:23:28.726Z,14.38
2022-11-08T20:26:14.932Z,14.38
2022-11-08T20:28:55.194Z,12.23
2022-11-08T20:31:24.234Z,11.70
2022-11-08T20:33:54.715Z,12.85
2022-11-08T20:36:26.159Z,12.90
2022-11-08T20:39:07.019Z,10.00
2022-11-08T20:41:41.859Z,13.50
2022-11-08T20:44:23.556Z,9.95
2022-11-08T20:46:53.472Z,12.23
2022-11-08T20:49:29.011Z,11.98
2022-11-08T20:52:04.763Z,9.52
2022-11-08T20:54:43.659Z,10.60
2022-11-08T20:57:21.519Z,10.25
2022-11-08T20:59:54.378Z,8.93
2022-11-08T21:02:24.278Z,10.80
2022-11-08T21:04:58.724Z,16.17
2022-11-08T21:08:01.785Z,11.60
2022-11-08T21:10:42.712Z,11.57
2022-11-08T21:13:11.406Z,9.77
2022-11-08T21:15:41.598Z,9.20
2022-11-08T21:18:14.484Z,9.90
2022-11-08T21:20:45.333Z,8.33
2022-11-08T21:23:28.235Z,9.57
2022-11-08T21:26:13.834Z,9.70
2022-11-08T21:28:51.920Z,8.25
2022-11-08T21:31:25.623Z,8.50
2022-11-08T21:33:55.643Z,9.75
2022-11-08T21:36:27.409Z,8.13
2022-11-08T21:39:05.814Z,8.57
2022-11-08T21:41:38.287Z,10.77
2022-11-08T21:44:16.506Z,9.10
2022-11-08T21:46:58.087Z,9.93
2022-11-08T21:49:31.279Z,10.98
2022-11-08T21:52:04.682Z,10.65
2022-11-08T21:54:51.922Z,14.80
2022-11-08T21:57:29.092Z,17.33
2022-11-08T22:00:16.508Z,14.73
2022-11-08T22:02:48.779Z,13.90
2022-11-08T22:05:18.775Z,11.18
2022-11-08T22:08:06.330Z,8.88
2022-11-08T22:10:40.242Z,15.48
2022-11-08T22:13:18.852Z,26.48
2022-11-08T22:16:00.465Z,28.33
2022-11-08T22:18:50.725Z,11.98
2022-11-08T22:21:45.456Z,8.73
2022-11-08T22:24:34.493Z,8.05
2022-11-08T22:27:05.132Z,9.52
2022-11-08T22:29:57.065Z,7.63
2022-11-08T22:32:27.404Z,9.07
2022-11-08T22:34:57.127Z,7.57
2022-11-08T22:37:32.947Z,7.07
2022-11-08T22:40:07.573Z,9.85
2022-11-08T22:42:47.933Z,7.95
2022-11-08T22:45:26.263Z,7.40
2022-11-08T22:47:56.282Z,8.13
2022-11-08T22:50:26.510Z,11.52
2022-11-08T22:53:04.391Z,11.32
2022-11-08T22:55:39.779Z,7.50
2022-11-08T22:58:20.657Z,8.82
2022-11-08T23:00:50.880Z,8.73
2022-11-08T23:03:18.694Z,9.20
2022-11-08T23:06:17.828Z,7.85
2022-11-08T23:08:59.895Z,8.80
2022-11-08T23:12:17.438Z,7.25
2022-11-08T23:15:03.213Z,8.25
2022-11-08T23:17:35.963Z,7.53
2022-11-08T23:20:25.366Z,7.65
2022-11-08T23:23:21.479Z,8.10
2022-11-08T23:25:57.611Z,9.70
2022-11-08T23:28:52.763Z,7.88
2022-11-08T23:31:53.503Z,10.75
2022-11-08T23:34:25.875Z,8.25
2022-11-08T23:36:58.655Z,8.30
2022-11-08T23:39:33.713Z,7.32
2022-11-08T23:42:23.238Z,8.48
2022-11-08T23:45:07.564Z,9.00
2022-11-08T23:47:46.855Z,8.18
2022-11-08T23:50:18.026Z,8.10
2022-11-08T23:52:50.577Z,7.97
2022-11-08T23:55:23.158Z,8.75
2022-11-08T23:58:06.469Z,7.50
